Leoberto Leal, Brazil
Current Conditions -  °F | °C
As of 3:00 PM on Thursday 30 Oct 2014 (Local Time) from SBFL Reporting Station
Few Clouds Few Clouds  
Wind Chill: 82°   Ceiling: Unl
Heat Index: 86°   Visibility: 6mi
Dew Point: 70°   Wind: 10mph
Humidity: 66%   Direction: 120°ESE
Pressure: 29.74"   Gusts: NA
Location:  27.51°S, 49.29°W
Report Text: SBFL 301700Z 12009KT 9999 FEW035 28/21 Q1007
Loading
Personal Weather Stations






























Interactive Weather Map
Tropical Storm Tracking
New forecast layout! Learn more

10-Day Weather Forecast

Advertisements
Track Severe Weather on mobile